Accueil
METAR-TAF:

METAR-TAF

Aéroports :

Aéroport Le Mans-Arnage

Le Mans, France

latitude: 47-56N, longitude: 000-12E, altitude: 59 m

Observation

Le bulletin a été fait il y a 10 minutes, à 02:00 UTC
Vent 8 kt de sud-ouest, variant entre sud et ouest
Température 16°C
Humidité 88%
Pression 1006 hPa
Visibilité 10 km ou plus
Nuages fragmentés à une hauteur de 1600 ft
Nuages fragmentés à une hauteur de 3700 ft
Nuages fragmentés à une hauteur de 4300 ft

METAR: LFRM 060200Z AUTO 23008KT 180V260 9999 BKN016 BKN037 BKN043 16/14 Q1006

Heure: 04:10 (02:10 UTC)


TAF: absent

Observations et prévisions météorologiques de plus de 4000 aéroports (messages METAR et TAF).

Les stations disponibles sont représentées par des disques jaunes et rouges sur la carte.

Passer la souris dessus pour voir le nom de la station.

Cliquer dessus pour voir les observations et prévisions météorologiques.

Pour changer de carte: cliquez sur les boutons verts avec une croix noire pour zoomer, sur le bouton vert avec un tiret pour effectuer un zoom arrière, ou sur les flèches vertes pour les cartes adjacentes.


METAR-TAF: